createdAt,value
2019-02-18T00:01:36.567Z,4.32
2019-02-18T00:04:05.591Z,4.32
2019-02-18T00:06:34.654Z,4.28
2019-02-18T00:09:04.843Z,4.24
2019-02-18T00:11:33.883Z,4.29
2019-02-18T00:14:02.942Z,4.32
2019-02-18T00:16:31.972Z,4.33
2019-02-18T00:19:00.982Z,4.38
2019-02-18T00:21:30.379Z,4.39
2019-02-18T00:23:59.434Z,4.42
2019-02-18T00:26:28.495Z,4.40
2019-02-18T00:28:57.573Z,4.37
2019-02-18T00:31:26.590Z,4.36
2019-02-18T00:33:55.457Z,4.33
2019-02-18T00:36:24.504Z,4.33
2019-02-18T00:38:53.739Z,4.32
2019-02-18T00:41:22.813Z,4.33
2019-02-18T00:43:51.820Z,4.30
2019-02-18T00:46:20.895Z,4.29
2019-02-18T00:48:50.281Z,4.26
2019-02-18T00:51:19.312Z,4.19
2019-02-18T00:53:48.352Z,4.17
2019-02-18T00:56:17.367Z,4.11
2019-02-18T00:58:46.423Z,4.08
2019-02-18T01:01:15.509Z,4.04
2019-02-18T01:03:44.848Z,3.98
2019-02-18T01:06:13.902Z,3.94
2019-02-18T01:08:42.981Z,3.92
2019-02-18T01:11:11.995Z,3.89
2019-02-18T01:13:41.007Z,3.88
2019-02-18T01:16:10.050Z,3.87
2019-02-18T01:18:39.075Z,3.87
2019-02-18T01:21:08.124Z,3.86
2019-02-18T01:23:37.058Z,3.84
2019-02-18T01:26:06.067Z,3.82
2019-02-18T01:28:35.125Z,3.80
2019-02-18T01:31:04.474Z,3.82
2019-02-18T01:33:33.424Z,3.83
2019-02-18T01:36:02.821Z,3.85
2019-02-18T01:38:32.214Z,3.87
2019-02-18T01:41:01.247Z,3.87
2019-02-18T01:43:30.302Z,3.86
2019-02-18T01:45:59.350Z,3.83
2019-02-18T01:48:28.407Z,3.83
2019-02-18T01:50:57.422Z,3.80
2019-02-18T01:53:26.479Z,3.79
2019-02-18T01:55:55.518Z,3.77
2019-02-18T01:58:24.539Z,3.70
2019-02-18T02:00:53.965Z,3.69
2019-02-18T02:03:25.162Z,3.67
2019-02-18T02:05:53.688Z,3.65
2019-02-18T02:08:22.702Z,3.62
2019-02-18T02:10:51.754Z,3.60
2019-02-18T02:13:28.392Z,3.59
2019-02-18T02:15:58.146Z,3.57
2019-02-18T02:18:27.434Z,3.56
2019-02-18T02:20:56.791Z,3.54
2019-02-18T02:23:25.850Z,3.51
2019-02-18T02:25:54.893Z,3.48
2019-02-18T02:28:23.946Z,3.47
2019-02-18T02:30:53.004Z,3.46
2019-02-18T02:33:22.046Z,3.45
2019-02-18T02:35:51.124Z,3.45
2019-02-18T02:38:20.152Z,3.44
2019-02-18T02:40:49.200Z,3.39
2019-02-18T02:43:18.277Z,3.39
2019-02-18T02:45:47.309Z,3.39
2019-02-18T02:48:17.162Z,3.44
2019-02-18T02:50:46.223Z,3.47
2019-02-18T02:53:15.244Z,3.50
2019-02-18T02:55:44.340Z,3.53
2019-02-18T02:58:13.410Z,3.54
2019-02-18T03:00:42.727Z,3.50
2019-02-18T03:03:11.781Z,3.50
2019-02-18T03:05:40.794Z,3.52
2019-02-18T03:08:19.976Z,3.53
2019-02-18T03:10:40.826Z,3.51
2019-02-18T03:13:10.247Z,3.50
2019-02-18T03:15:39.309Z,3.46
2019-02-18T03:18:08.347Z,3.46
2019-02-18T03:20:37.428Z,3.47
2019-02-18T03:23:06.479Z,3.44
2019-02-18T03:25:35.661Z,3.46
2019-02-18T03:28:44.169Z,3.48
2019-02-18T03:31:20.577Z,3.50
2019-02-18T03:33:55.919Z,3.53
2019-02-18T03:36:24.952Z,3.57
2019-02-18T03:38:53.940Z,3.59
2019-02-18T03:41:22.983Z,3.61
2019-02-18T03:43:52.036Z,3.66
2019-02-18T03:46:20.981Z,3.70
2019-02-18T03:48:49.990Z,3.75
2019-02-18T03:51:18.979Z,3.72
2019-02-18T03:53:48.334Z,3.70
2019-02-18T03:56:17.397Z,3.69
2019-02-18T03:58:46.440Z,3.68
2019-02-18T04:01:15.917Z,3.67
2019-02-18T04:03:44.902Z,3.66
2019-02-18T04:06:14.269Z,3.64
2019-02-18T04:08:43.569Z,3.61
2019-02-18T04:11:12.831Z,3.60
2019-02-18T04:13:41.848Z,3.60
2019-02-18T04:16:10.865Z,3.59
2019-02-18T04:18:39.872Z,3.59
2019-02-18T04:21:08.787Z,3.58
2019-02-18T04:23:37.821Z,3.59
2019-02-18T04:26:06.840Z,3.56
2019-02-18T04:28:35.908Z,3.54
2019-02-18T04:31:05.216Z,3.51
2019-02-18T04:33:34.233Z,3.50
2019-02-18T04:36:03.239Z,3.50
2019-02-18T04:38:32.609Z,3.51
2019-02-18T04:41:01.894Z,3.54
2019-02-18T04:43:30.843Z,3.54
2019-02-18T04:45:59.897Z,3.58
2019-02-18T04:48:28.842Z,3.61
2019-02-18T04:50:57.904Z,3.65
2019-02-18T04:53:26.982Z,3.68
2019-02-18T04:55:56.121Z,3.72
2019-02-18T04:58:25.191Z,3.76
2019-02-18T05:00:54.259Z,3.80
2019-02-18T05:03:23.588Z,3.82
2019-02-18T05:05:52.639Z,3.84
2019-02-18T05:08:21.999Z,3.86
2019-02-18T05:10:50.975Z,3.88
2019-02-18T05:13:20.253Z,3.89
2019-02-18T05:15:49.343Z,3.91
2019-02-18T05:18:18.357Z,3.93
2019-02-18T05:20:47.404Z,3.93
2019-02-18T05:23:16.365Z,3.93
2019-02-18T05:25:45.384Z,3.94
2019-02-18T05:28:14.434Z,3.94
2019-02-18T05:30:43.746Z,3.93
2019-02-18T05:33:12.806Z,3.93
2019-02-18T05:35:41.821Z,3.93
2019-02-18T05:38:11.275Z,3.98
2019-02-18T05:40:40.295Z,3.97
2019-02-18T05:43:09.329Z,3.99
2019-02-18T05:45:38.747Z,4.00
2019-02-18T05:48:07.763Z,3.99
2019-02-18T05:50:37.028Z,3.98
2019-02-18T05:53:06.092Z,3.97
2019-02-18T05:55:35.109Z,3.93
2019-02-18T05:58:04.122Z,3.92
2019-02-18T06:00:33.158Z,3.90
2019-02-18T06:03:02.184Z,3.90
2019-02-18T06:05:31.498Z,3.89
2019-02-18T06:08:00.506Z,3.89
2019-02-18T06:10:29.559Z,3.86
2019-02-18T06:12:58.868Z,3.86
2019-02-18T06:15:27.910Z,3.83
2019-02-18T06:17:56.939Z,3.84
2019-02-18T06:20:26.042Z,3.85
2019-02-18T06:22:54.970Z,3.84
2019-02-18T06:25:24.049Z,3.86
2019-02-18T06:27:53.040Z,3.85
2019-02-18T06:30:22.027Z,3.80
2019-02-18T06:32:51.058Z,3.81
2019-02-18T06:35:20.080Z,3.82
2019-02-18T06:37:49.444Z,3.83
2019-02-18T06:40:18.474Z,3.82
2019-02-18T06:42:47.490Z,3.85
2019-02-18T06:45:35.524Z,3.87
2019-02-18T06:48:29.701Z,3.89
2019-02-18T06:50:59.038Z,3.93
2019-02-18T06:53:28.048Z,3.94
2019-02-18T06:55:57.433Z,3.99
2019-02-18T06:58:45.867Z,4.01
2019-02-18T07:01:46.180Z,4.05
2019-02-18T07:04:26.963Z,4.06
2019-02-18T07:07:15.011Z,4.09
2019-02-18T07:09:51.558Z,4.15
2019-02-18T07:12:27.159Z,4.22
2019-02-18T07:14:56.594Z,4.29
2019-02-18T07:17:25.906Z,4.37
2019-02-18T07:19:54.851Z,4.43
2019-02-18T07:22:23.945Z,4.53
2019-02-18T07:24:52.957Z,4.66
2019-02-18T07:27:22.002Z,4.76
2019-02-18T07:29:51.052Z,4.90
2019-02-18T07:32:21.042Z,5.08
2019-02-18T07:34:50.021Z,5.28
2019-02-18T07:37:19.038Z,5.54
2019-02-18T07:39:48.091Z,5.75
2019-02-18T07:42:17.328Z,6.00
2019-02-18T07:44:46.407Z,6.23
2019-02-18T07:47:15.346Z,6.38
2019-02-18T07:49:44.659Z,6.43
2019-02-18T07:52:13.716Z,6.44
2019-02-18T07:54:42.726Z,6.39
2019-02-18T07:57:11.744Z,6.41
2019-02-18T07:59:42.788Z,6.41
2019-02-18T08:02:11.993Z,6.46
2019-02-18T08:04:41.341Z,6.49
2019-02-18T08:07:10.409Z,6.56
2019-02-18T08:09:39.466Z,6.63
2019-02-18T08:12:08.521Z,6.69
2019-02-18T08:14:37.543Z,6.77
2019-02-18T08:17:06.590Z,6.82
2019-02-18T08:19:35.642Z,6.88
2019-02-18T08:22:04.681Z,6.95
2019-02-18T08:24:34.038Z,7.02
2019-02-18T08:27:03.083Z,7.19
2019-02-18T08:29:32.301Z,7.26
2019-02-18T08:32:01.708Z,7.38
2019-02-18T08:34:30.752Z,7.50
2019-02-18T08:36:59.814Z,7.64
2019-02-18T08:39:28.831Z,7.70
2019-02-18T08:41:57.898Z,7.80
2019-02-18T08:44:26.925Z,7.95
2019-02-18T08:46:55.988Z,8.06
2019-02-18T08:49:25.268Z,8.19
2019-02-18T08:51:54.261Z,8.30
2019-02-18T08:54:23.312Z,8.42
2019-02-18T08:56:52.336Z,8.52
2019-02-18T08:59:21.394Z,8.64
2019-02-18T09:01:50.518Z,8.68
2019-02-18T09:04:19.514Z,8.80
2019-02-18T09:06:48.459Z,8.83
2019-02-18T09:09:17.464Z,8.95
2019-02-18T09:11:46.526Z,9.07
2019-02-18T09:14:15.499Z,9.22
2019-02-18T09:16:44.948Z,9.31
2019-02-18T09:19:13.925Z,9.36
2019-02-18T09:21:43.005Z,9.38
2019-02-18T09:24:33.917Z,9.52
2019-02-18T09:27:02.996Z,9.58
2019-02-18T09:29:31.936Z,9.68
2019-02-18T09:32:00.879Z,9.82
2019-02-18T09:34:29.934Z,9.91
2019-02-18T09:36:58.950Z,10.02
2019-02-18T09:39:31.325Z,10.14
2019-02-18T09:41:58.684Z,10.18
2019-02-18T09:44:27.747Z,10.27
2019-02-18T09:46:57.038Z,10.34
2019-02-18T09:49:26.417Z,10.50
2019-02-18T09:51:55.443Z,10.57
2019-02-18T09:54:24.426Z,10.78
2019-02-18T09:56:53.496Z,10.93
2019-02-18T09:59:22.518Z,11.00
2019-02-18T10:01:52.014Z,11.18
2019-02-18T10:04:22.688Z,11.25
2019-02-18T10:06:51.908Z,11.32
2019-02-18T10:09:20.937Z,11.36
2019-02-18T10:11:49.957Z,11.40
2019-02-18T10:14:19.028Z,11.49
2019-02-18T10:16:47.980Z,11.62
2019-02-18T10:19:16.960Z,11.59
2019-02-18T10:21:46.043Z,11.75
2019-02-18T10:24:15.074Z,11.83
2019-02-18T10:26:44.141Z,11.88
2019-02-18T10:29:13.221Z,11.87
2019-02-18T10:31:42.211Z,12.00
2019-02-18T10:34:11.229Z,12.04
2019-02-18T10:36:40.302Z,12.12
2019-02-18T10:39:09.520Z,12.21
2019-02-18T10:41:38.588Z,12.18
2019-02-18T10:44:07.629Z,12.27
2019-02-18T10:46:36.723Z,12.38
2019-02-18T10:49:18.704Z,12.43
2019-02-18T10:51:36.532Z,12.56
2019-02-18T10:54:06.077Z,12.54
2019-02-18T10:56:35.114Z,12.50
2019-02-18T10:59:04.176Z,12.52
2019-02-18T11:01:33.234Z,12.55
2019-02-18T11:04:02.318Z,12.63
2019-02-18T11:06:31.745Z,12.73
2019-02-18T11:09:00.826Z,12.81
2019-02-18T11:11:29.862Z,12.94
2019-02-18T11:13:58.880Z,13.03
2019-02-18T11:16:27.955Z,13.15
2019-02-18T11:18:57.254Z,13.22
2019-02-18T11:21:26.265Z,13.25
2019-02-18T11:23:55.333Z,13.35
2019-02-18T11:26:24.352Z,13.39
2019-02-18T11:28:53.344Z,13.44
2019-02-18T11:31:22.415Z,13.51
2019-02-18T11:33:51.448Z,13.59
2019-02-18T11:36:20.503Z,13.56
2019-02-18T11:38:49.520Z,13.65
2019-02-18T11:41:27.072Z,13.79
2019-02-18T11:43:49.658Z,13.78
2019-02-18T11:46:18.959Z,13.76
2019-02-18T11:48:48.041Z,13.68
2019-02-18T11:51:17.523Z,13.77
2019-02-18T11:53:46.540Z,13.81
2019-02-18T11:56:15.633Z,13.83
2019-02-18T11:58:44.695Z,13.87
2019-02-18T12:01:13.718Z,13.95
2019-02-18T12:03:42.794Z,13.94
2019-02-18T12:06:11.891Z,13.93
2019-02-18T12:08:40.920Z,13.97
2019-02-18T12:11:09.985Z,14.04
2019-02-18T12:13:39.012Z,14.12
2019-02-18T12:16:08.444Z,14.20
2019-02-18T12:18:37.467Z,14.25
2019-02-18T12:21:06.857Z,14.20
2019-02-18T12:23:35.915Z,14.19
2019-02-18T12:26:05.338Z,14.16
2019-02-18T12:28:34.287Z,14.31
2019-02-18T12:31:03.382Z,14.31
2019-02-18T12:33:32.447Z,14.31
2019-02-18T12:36:01.471Z,14.23
2019-02-18T12:38:30.531Z,14.30
2019-02-18T12:40:59.890Z,14.31
2019-02-18T12:43:29.414Z,14.27
2019-02-18T12:45:58.564Z,14.28
2019-02-18T12:48:27.625Z,14.26
2019-02-18T12:50:56.695Z,14.32
2019-02-18T12:53:25.735Z,14.28
2019-02-18T12:55:54.720Z,14.31
2019-02-18T12:58:23.806Z,14.46
2019-02-18T13:00:52.842Z,14.43
2019-02-18T13:03:22.134Z,14.40
2019-02-18T13:05:51.528Z,14.45
2019-02-18T13:08:20.403Z,14.45
2019-02-18T13:10:49.443Z,14.38
2019-02-18T13:13:18.784Z,14.47
2019-02-18T13:15:47.864Z,14.42
2019-02-18T13:18:16.812Z,14.43
2019-02-18T13:20:45.898Z,14.43
2019-02-18T13:23:14.964Z,14.45
2019-02-18T13:25:47.533Z,14.41
2019-02-18T13:28:14.734Z,14.37
2019-02-18T13:30:44.059Z,14.33
2019-02-18T13:33:13.102Z,14.34
2019-02-18T13:35:42.499Z,14.31
2019-02-18T13:38:11.806Z,14.29
2019-02-18T13:40:40.824Z,14.31
2019-02-18T13:43:09.904Z,14.35
2019-02-18T13:45:38.931Z,14.30
2019-02-18T13:48:07.964Z,14.21
2019-02-18T13:50:37.322Z,14.20
2019-02-18T13:53:06.748Z,14.31
2019-02-18T13:55:35.743Z,14.41
2019-02-18T13:58:05.466Z,14.40
2019-02-18T14:00:34.558Z,14.42
2019-02-18T14:03:03.606Z,14.45
2019-02-18T14:05:32.699Z,14.43
2019-02-18T14:08:02.031Z,14.41
2019-02-18T14:10:31.094Z,14.44
2019-02-18T14:13:00.092Z,14.43
2019-02-18T14:15:29.522Z,14.39
2019-02-18T14:17:58.558Z,14.38
2019-02-18T14:20:27.631Z,14.39
2019-02-18T14:22:56.994Z,14.28
2019-02-18T14:25:26.295Z,14.30
2019-02-18T14:27:55.355Z,14.30
2019-02-18T14:30:24.626Z,14.30
2019-02-18T14:32:53.660Z,14.27
2019-02-18T14:35:22.746Z,14.20
2019-02-18T14:37:51.979Z,14.27
2019-02-18T14:40:21.144Z,14.24
2019-02-18T14:42:50.219Z,14.19
2019-02-18T14:45:19.379Z,14.20
2019-02-18T14:47:48.445Z,14.18
2019-02-18T14:50:18.807Z,14.16
2019-02-18T14:52:48.305Z,14.13
2019-02-18T14:55:17.335Z,14.11
2019-02-18T14:57:46.406Z,14.08
2019-02-18T15:00:20.969Z,14.07
2019-02-18T15:02:51.096Z,14.05
2019-02-18T15:05:20.298Z,13.98
2019-02-18T15:07:49.327Z,13.97
2019-02-18T15:10:18.688Z,13.95
2019-02-18T15:12:47.747Z,13.89
2019-02-18T15:15:16.888Z,13.74
2019-02-18T15:17:45.954Z,13.72
2019-02-18T15:20:15.034Z,13.73
2019-02-18T15:22:44.078Z,13.64
2019-02-18T15:25:13.250Z,13.62
2019-02-18T15:27:42.268Z,13.52
2019-02-18T15:30:12.000Z,13.48
2019-02-18T15:32:41.069Z,13.37
2019-02-18T15:35:10.089Z,13.30
2019-02-18T15:37:39.265Z,13.19
2019-02-18T15:40:09.163Z,13.10
2019-02-18T15:42:42.221Z,12.99
2019-02-18T15:45:09.414Z,12.88
2019-02-18T15:47:38.611Z,12.79
2019-02-18T15:50:08.323Z,12.68
2019-02-18T15:52:37.367Z,12.59
2019-02-18T15:55:06.638Z,12.48
2019-02-18T15:57:35.642Z,12.36
2019-02-18T16:00:05.359Z,12.29
2019-02-18T16:02:34.406Z,12.19
2019-02-18T16:05:03.744Z,12.10
2019-02-18T16:07:32.810Z,12.01
2019-02-18T16:10:01.852Z,11.91
2019-02-18T16:12:30.875Z,11.81
2019-02-18T16:14:59.938Z,11.69
2019-02-18T16:17:28.895Z,11.58
2019-02-18T16:19:57.958Z,11.49
2019-02-18T16:22:26.977Z,11.36
2019-02-18T16:24:56.859Z,11.25
2019-02-18T16:27:25.891Z,11.13
2019-02-18T16:29:54.875Z,11.02
2019-02-18T16:32:23.982Z,10.91
2019-02-18T16:34:53.018Z,10.80
2019-02-18T16:37:22.594Z,10.70
2019-02-18T16:39:51.615Z,10.59
2019-02-18T16:42:20.644Z,10.49
2019-02-18T16:44:49.731Z,10.37
2019-02-18T16:47:18.674Z,10.27
2019-02-18T16:49:48.120Z,10.16
2019-02-18T16:52:17.171Z,10.06
2019-02-18T16:54:46.214Z,9.97
2019-02-18T16:57:15.302Z,9.88
2019-02-18T16:59:44.374Z,9.79
2019-02-18T17:02:13.388Z,9.71
2019-02-18T17:04:42.860Z,9.62
2019-02-18T17:07:11.876Z,9.53
2019-02-18T17:09:40.976Z,9.44
2019-02-18T17:12:10.026Z,9.35
2019-02-18T17:14:38.970Z,9.24
2019-02-18T17:17:08.027Z,9.15
2019-02-18T17:19:37.040Z,9.07
2019-02-18T17:22:06.100Z,8.98
2019-02-18T17:24:35.139Z,8.90
2019-02-18T17:27:04.211Z,8.82
2019-02-18T17:29:33.239Z,8.75
2019-02-18T17:32:02.306Z,8.70
2019-02-18T17:34:31.327Z,8.66
2019-02-18T17:37:01.517Z,8.65
2019-02-18T17:39:30.572Z,8.63
2019-02-18T17:41:59.579Z,8.61
2019-02-18T17:44:28.661Z,8.56
2019-02-18T17:46:57.669Z,8.51
2019-02-18T17:49:26.720Z,8.49
2019-02-18T17:51:56.080Z,8.46
2019-02-18T17:54:25.140Z,8.43
2019-02-18T17:56:54.160Z,8.39
2019-02-18T17:59:23.148Z,8.34
2019-02-18T18:01:52.166Z,8.31
2019-02-18T18:04:21.648Z,8.29
2019-02-18T18:06:51.003Z,8.26
2019-02-18T18:09:20.050Z,8.25
2019-02-18T18:11:49.106Z,8.24
2019-02-18T18:14:18.136Z,8.22
2019-02-18T18:16:47.142Z,8.20
2019-02-18T18:19:16.082Z,8.18
2019-02-18T18:21:45.299Z,8.16
2019-02-18T18:24:14.278Z,8.15
2019-02-18T18:26:43.291Z,8.14
2019-02-18T18:29:12.346Z,8.13
2019-02-18T18:31:41.441Z,8.06
2019-02-18T18:34:10.504Z,7.97
2019-02-18T18:36:39.792Z,7.92
2019-02-18T18:39:08.869Z,7.86
2019-02-18T18:41:37.894Z,7.80
2019-02-18T18:44:06.910Z,7.68
2019-02-18T18:46:35.979Z,7.62
2019-02-18T18:49:05.004Z,7.55
2019-02-18T18:51:34.452Z,7.49
2019-02-18T18:54:03.514Z,7.43
2019-02-18T18:56:32.571Z,7.36
2019-02-18T18:59:01.603Z,7.30
2019-02-18T19:01:30.721Z,7.25
2019-02-18T19:03:59.805Z,7.18
2019-02-18T19:06:29.145Z,7.10
2019-02-18T19:08:58.089Z,7.04
2019-02-18T19:11:27.118Z,6.97
2019-02-18T19:13:56.182Z,6.90
2019-02-18T19:16:25.173Z,6.83
2019-02-18T19:18:54.200Z,6.78
2019-02-18T19:21:23.467Z,6.76
2019-02-18T19:23:52.500Z,6.70
2019-02-18T19:26:21.498Z,6.69
2019-02-18T19:28:50.546Z,6.71
2019-02-18T19:31:19.486Z,6.69
2019-02-18T19:33:48.561Z,6.68
2019-02-18T19:36:17.635Z,6.62
2019-02-18T19:38:46.569Z,6.57
2019-02-18T19:41:15.758Z,6.48
2019-02-18T19:43:50.204Z,6.36
2019-02-18T19:46:15.750Z,6.27
2019-02-18T19:48:44.872Z,6.17
2019-02-18T19:51:13.881Z,6.09
2019-02-18T19:53:42.958Z,5.98
2019-02-18T19:56:11.986Z,5.92
2019-02-18T19:58:41.335Z,5.90
2019-02-18T20:01:10.402Z,5.90
2019-02-18T20:03:39.415Z,5.89
2019-02-18T20:06:08.536Z,5.89
2019-02-18T20:08:37.593Z,5.90
2019-02-18T20:11:07.015Z,5.90
2019-02-18T20:13:36.072Z,5.87
2019-02-18T20:16:05.139Z,5.83
2019-02-18T20:18:34.413Z,5.81
2019-02-18T20:21:03.473Z,5.76
2019-02-18T20:23:32.535Z,5.73
2019-02-18T20:26:01.554Z,5.71
2019-02-18T20:28:30.643Z,5.67
2019-02-18T20:30:59.706Z,5.65
2019-02-18T20:33:29.482Z,5.70
2019-02-18T20:35:58.497Z,5.73
2019-02-18T20:38:27.531Z,5.74
2019-02-18T20:40:56.586Z,5.71
2019-02-18T20:43:25.596Z,5.67
2019-02-18T20:45:54.696Z,5.64
2019-02-18T20:48:24.147Z,5.62
2019-02-18T20:50:53.166Z,5.60
2019-02-18T20:53:22.186Z,5.59
2019-02-18T20:55:51.242Z,5.58
2019-02-18T20:58:20.607Z,5.57
2019-02-18T21:00:49.719Z,5.55
2019-02-18T21:03:19.101Z,5.58
2019-02-18T21:05:48.121Z,5.59
2019-02-18T21:08:17.135Z,5.59
2019-02-18T21:10:46.191Z,5.61
2019-02-18T21:13:15.242Z,5.60
2019-02-18T21:15:44.246Z,5.59
2019-02-18T21:18:14.017Z,5.55
2019-02-18T21:20:43.081Z,5.49
2019-02-18T21:23:12.093Z,5.40
2019-02-18T21:25:41.194Z,5.34
2019-02-18T21:28:10.151Z,5.31
2019-02-18T21:30:39.204Z,5.30
2019-02-18T21:33:08.639Z,5.38
2019-02-18T21:35:37.661Z,5.47
2019-02-18T21:38:06.714Z,5.57
2019-02-18T21:40:36.131Z,5.64
2019-02-18T21:43:05.194Z,5.74
2019-02-18T21:45:34.594Z,5.83
2019-02-18T21:48:03.886Z,5.93
2019-02-18T21:50:35.502Z,6.05
2019-02-18T21:53:04.667Z,6.18
2019-02-18T21:55:33.713Z,6.32
2019-02-18T21:58:02.768Z,6.44
2019-02-18T22:00:31.786Z,6.54
2019-02-18T22:03:01.119Z,6.63
2019-02-18T22:05:30.135Z,6.72
2019-02-18T22:08:00.404Z,6.84
2019-02-18T22:10:29.545Z,6.93
2019-02-18T22:12:58.554Z,7.02
2019-02-18T22:15:27.650Z,7.11
2019-02-18T22:17:57.041Z,7.21
2019-02-18T22:20:26.058Z,7.28
2019-02-18T22:22:55.248Z,7.34
2019-02-18T22:25:24.287Z,7.42
2019-02-18T22:27:53.378Z,7.46
2019-02-18T22:30:22.464Z,7.49
2019-02-18T22:32:51.502Z,7.43
2019-02-18T22:35:20.517Z,7.45
2019-02-18T22:37:49.596Z,7.46
2019-02-18T22:40:18.634Z,7.42
2019-02-18T22:42:47.685Z,7.43
2019-02-18T22:45:16.757Z,7.41
2019-02-18T22:47:45.778Z,7.39
2019-02-18T22:50:15.224Z,7.39
2019-02-18T22:52:44.250Z,7.41
2019-02-18T22:55:13.472Z,7.43
2019-02-18T22:57:42.521Z,7.43
2019-02-18T23:00:25.936Z,7.46
2019-02-18T23:02:55.289Z,7.45
2019-02-18T23:05:24.346Z,7.43
2019-02-18T23:07:53.356Z,7.41
2019-02-18T23:10:22.391Z,7.38
2019-02-18T23:12:51.787Z,7.41
2019-02-18T23:15:20.855Z,7.39
2019-02-18T23:17:49.906Z,7.36
2019-02-18T23:20:18.927Z,7.30
2019-02-18T23:22:47.954Z,7.27
2019-02-18T23:25:17.229Z,7.23
2019-02-18T23:27:46.264Z,7.19
2019-02-18T23:30:15.324Z,7.13
2019-02-18T23:32:44.344Z,7.07
2019-02-18T23:35:13.671Z,7.01
2019-02-18T23:37:42.673Z,6.95
2019-02-18T23:40:11.724Z,6.96
2019-02-18T23:42:40.778Z,7.02
2019-02-18T23:45:09.803Z,7.13
2019-02-18T23:47:38.853Z,7.22
2019-02-18T23:50:07.914Z,7.27
2019-02-18T23:52:36.928Z,7.30
2019-02-18T23:55:06.319Z,7.38
2019-02-18T23:57:35.336Z,7.45
